createdAt,value
2023-04-22T00:01:26.236Z,87.39
2023-04-22T00:03:53.662Z,87.33
2023-04-22T00:06:20.491Z,87.67
2023-04-22T00:08:47.155Z,87.44
2023-04-22T00:11:13.817Z,87.66
2023-04-22T00:13:40.478Z,87.52
2023-04-22T00:16:07.476Z,87.58
2023-04-22T00:18:36.220Z,88.09
2023-04-22T00:21:08.208Z,88.17
2023-04-22T00:23:35.087Z,88.52
2023-04-22T00:26:02.267Z,87.76
2023-04-22T00:28:29.059Z,88.00
2023-04-22T00:30:58.830Z,88.12
2023-04-22T00:33:25.714Z,88.29
2023-04-22T00:35:54.707Z,88.36
2023-04-22T00:38:21.628Z,88.21
2023-04-22T00:40:48.371Z,88.54
2023-04-22T00:43:16.967Z,88.52
2023-04-22T00:45:44.553Z,88.54
2023-04-22T00:48:13.055Z,88.53
2023-04-22T00:50:39.789Z,88.51
2023-04-22T00:53:06.669Z,88.53
2023-04-22T00:55:36.536Z,88.68
2023-04-22T00:58:03.742Z,88.80
2023-04-22T01:00:31.028Z,88.85
2023-04-22T01:02:58.513Z,88.75
2023-04-22T01:05:25.859Z,88.80
2023-04-22T01:07:52.584Z,89.04
2023-04-22T01:10:19.747Z,89.14
2023-04-22T01:12:46.400Z,89.10
2023-04-22T01:15:13.339Z,89.17
2023-04-22T01:17:40.095Z,89.28
2023-04-22T01:20:10.342Z,89.08
2023-04-22T01:22:42.762Z,89.26
2023-04-22T01:25:11.357Z,89.27
2023-04-22T01:27:39.328Z,89.26
2023-04-22T01:30:07.161Z,89.35
2023-04-22T01:32:34.034Z,89.35
2023-04-22T01:35:00.748Z,89.55
2023-04-22T01:37:28.396Z,89.47
2023-04-22T01:39:55.673Z,89.59
2023-04-22T01:42:22.565Z,89.49
2023-04-22T01:44:49.160Z,89.47
2023-04-22T01:47:15.874Z,89.58
2023-04-22T01:49:42.916Z,89.52
2023-04-22T01:52:09.903Z,89.58
2023-04-22T01:54:36.590Z,89.58
2023-04-22T01:57:10.032Z,89.64
2023-04-22T01:59:36.889Z,89.68
2023-04-22T02:02:03.984Z,89.70
2023-04-22T02:04:32.100Z,89.97
2023-04-22T02:06:58.926Z,89.79
2023-04-22T02:09:25.568Z,89.93
2023-04-22T02:11:52.257Z,90.10
2023-04-22T02:14:18.869Z,90.05
2023-04-22T02:16:45.574Z,90.15
2023-04-22T02:19:12.174Z,90.02
2023-04-22T02:21:38.826Z,90.01
2023-04-22T02:24:05.892Z,90.16
2023-04-22T02:26:32.586Z,90.13
2023-04-22T02:28:59.253Z,90.09
2023-04-22T02:31:26.026Z,90.16
2023-04-22T02:33:52.774Z,90.00
2023-04-22T02:36:19.358Z,90.09
2023-04-22T02:38:46.250Z,90.15
2023-04-22T02:41:12.817Z,90.38
2023-04-22T02:43:39.541Z,90.29
2023-04-22T02:46:06.339Z,90.31
2023-04-22T02:48:32.982Z,90.38
2023-04-22T02:50:59.568Z,90.33
2023-04-22T02:53:26.139Z,90.46
2023-04-22T02:55:52.791Z,90.20
2023-04-22T02:58:19.519Z,90.59
2023-04-22T03:00:46.238Z,90.66
2023-04-22T03:03:13.441Z,90.71
2023-04-22T03:05:40.611Z,90.74
2023-04-22T03:08:07.259Z,90.63
2023-04-22T03:10:33.998Z,90.72
2023-04-22T03:13:00.643Z,90.71
2023-04-22T03:15:27.368Z,90.70
2023-04-22T03:17:54.032Z,90.76
2023-04-22T03:20:20.965Z,90.72
2023-04-22T03:22:47.652Z,90.83
2023-04-22T03:25:14.737Z,90.92
2023-04-22T03:27:41.447Z,90.81
2023-04-22T03:30:09.695Z,90.83
2023-04-22T03:32:36.456Z,90.74
2023-04-22T03:35:03.184Z,90.77
2023-04-22T03:37:29.889Z,90.70
2023-04-22T03:39:56.520Z,90.92
2023-04-22T03:42:23.259Z,90.94
2023-04-22T03:44:49.919Z,91.21
2023-04-22T03:47:16.608Z,91.04
2023-04-22T03:49:43.756Z,91.09
2023-04-22T03:52:10.644Z,91.14
2023-04-22T03:54:37.282Z,91.14
2023-04-22T03:57:04.007Z,91.17
2023-04-22T03:59:30.673Z,91.18
2023-04-22T04:01:57.445Z,91.24
2023-04-22T04:04:24.602Z,91.10
2023-04-22T04:06:51.569Z,90.99
2023-04-22T04:09:18.236Z,91.08
2023-04-22T04:11:44.881Z,91.26
2023-04-22T04:14:11.515Z,91.26
2023-04-22T04:16:39.163Z,91.21
2023-04-22T04:19:06.431Z,91.30
2023-04-22T04:21:34.268Z,91.26
2023-04-22T04:24:00.973Z,91.23
2023-04-22T04:26:28.839Z,91.05
2023-04-22T04:28:55.894Z,91.23
2023-04-22T04:31:25.026Z,91.20
2023-04-22T04:33:52.494Z,91.08
2023-04-22T04:36:19.904Z,91.13
2023-04-22T04:38:47.803Z,91.18
2023-04-22T04:41:14.628Z,91.08
2023-04-22T04:43:41.308Z,91.07
2023-04-22T04:46:08.464Z,91.18
2023-04-22T04:48:36.339Z,91.12
2023-04-22T04:51:04.505Z,91.09
2023-04-22T04:53:31.101Z,91.09
2023-04-22T04:55:57.721Z,91.26
2023-04-22T04:58:24.421Z,91.09
2023-04-22T05:00:51.273Z,90.94
2023-04-22T05:03:19.874Z,91.09
2023-04-22T05:05:48.939Z,91.21
2023-04-22T05:08:15.682Z,91.10
2023-04-22T05:10:42.747Z,91.06
2023-04-22T05:13:09.366Z,91.13
2023-04-22T05:15:36.218Z,91.01
2023-04-22T05:18:03.122Z,91.06
2023-04-22T05:20:29.828Z,91.07
2023-04-22T05:22:56.446Z,91.07
2023-04-22T05:25:24.236Z,91.01
2023-04-22T05:27:59.684Z,91.18
2023-04-22T05:30:27.480Z,91.06
2023-04-22T05:32:54.165Z,91.05
2023-04-22T05:35:20.924Z,91.13
2023-04-22T05:37:47.585Z,91.17
2023-04-22T05:40:14.186Z,91.27
2023-04-22T05:42:40.872Z,91.18
2023-04-22T05:45:08.337Z,91.07
2023-04-22T05:47:35.084Z,91.13
2023-04-22T05:50:01.764Z,91.17
2023-04-22T05:52:28.471Z,91.14
2023-04-22T05:54:55.037Z,91.42
2023-04-22T05:57:21.761Z,91.34
2023-04-22T05:59:48.449Z,91.47
2023-04-22T06:02:16.256Z,91.69
2023-04-22T06:04:43.370Z,91.60
2023-04-22T06:07:10.541Z,91.64
2023-04-22T06:09:38.402Z,91.49
2023-04-22T06:12:06.166Z,91.77
2023-04-22T06:14:32.798Z,91.91
2023-04-22T06:16:59.435Z,91.70
2023-04-22T06:19:26.162Z,91.74
2023-04-22T06:21:53.615Z,91.89
2023-04-22T06:24:22.331Z,91.86
2023-04-22T06:26:49.151Z,91.83
2023-04-22T06:29:16.070Z,91.82
2023-04-22T06:31:42.829Z,91.79
2023-04-22T06:34:09.503Z,91.86
2023-04-22T06:36:37.748Z,92.00
2023-04-22T06:39:05.783Z,91.94
2023-04-22T06:41:33.226Z,91.87
2023-04-22T06:43:59.858Z,91.98
2023-04-22T06:46:26.702Z,91.86
2023-04-22T06:48:53.448Z,91.69
2023-04-22T06:51:20.064Z,91.74
2023-04-22T06:53:46.708Z,91.42
2023-04-22T06:56:13.485Z,91.54
2023-04-22T06:58:40.058Z,91.60
2023-04-22T07:01:06.752Z,91.38
2023-04-22T07:03:34.150Z,91.25
2023-04-22T07:06:01.182Z,91.29
2023-04-22T07:08:27.994Z,91.27
2023-04-22T07:10:54.845Z,91.24
2023-04-22T07:13:21.560Z,91.11
2023-04-22T07:15:48.261Z,91.06
2023-04-22T07:18:14.922Z,91.02
2023-04-22T07:20:41.519Z,90.97
2023-04-22T07:23:08.180Z,90.78
2023-04-22T07:25:34.811Z,90.69
2023-04-22T07:28:01.409Z,90.67
2023-04-22T07:30:28.084Z,90.61
2023-04-22T07:32:56.126Z,90.83
2023-04-22T07:35:23.338Z,90.73
2023-04-22T07:37:50.049Z,90.87
2023-04-22T07:40:16.813Z,90.70
2023-04-22T07:42:43.466Z,90.62
2023-04-22T07:45:10.853Z,90.53
2023-04-22T07:47:37.555Z,90.28
2023-04-22T07:50:04.661Z,90.34
2023-04-22T07:52:31.452Z,90.10
2023-04-22T07:54:59.121Z,90.35
2023-04-22T07:57:26.034Z,90.32
2023-04-22T07:59:52.789Z,90.33
2023-04-22T08:02:19.732Z,90.32
2023-04-22T08:04:46.585Z,90.16
2023-04-22T08:07:31.760Z,90.29
2023-04-22T08:09:59.759Z,90.37
2023-04-22T08:12:26.409Z,90.25
2023-04-22T08:14:53.052Z,90.46
2023-04-22T08:17:22.071Z,90.56
2023-04-22T08:19:49.285Z,90.51
2023-04-22T08:22:17.851Z,90.42
2023-04-22T08:24:44.874Z,90.58
2023-04-22T08:27:11.852Z,91.00
2023-04-22T08:29:38.672Z,90.61
2023-04-22T08:32:05.660Z,90.87
2023-04-22T08:34:32.289Z,90.76
2023-04-22T08:36:59.078Z,90.76
2023-04-22T08:39:25.852Z,90.82
2023-04-22T08:41:53.335Z,90.85
2023-04-22T08:44:21.907Z,90.90
2023-04-22T08:46:49.267Z,91.16
2023-04-22T08:49:16.310Z,91.29
2023-04-22T08:51:44.308Z,91.13
2023-04-22T08:54:12.979Z,91.25
2023-04-22T08:56:45.319Z,91.36
2023-04-22T08:59:12.894Z,91.49
2023-04-22T09:01:41.430Z,91.38
2023-04-22T09:04:10.955Z,91.69
2023-04-22T09:06:39.170Z,91.69
2023-04-22T09:09:06.091Z,91.70
2023-04-22T09:11:33.429Z,91.82
2023-04-22T09:14:00.159Z,91.94
2023-04-22T09:16:26.786Z,92.03
2023-04-22T09:18:53.523Z,92.04
2023-04-22T09:21:20.375Z,92.08
2023-04-22T09:23:54.310Z,92.15
2023-04-22T09:26:23.487Z,92.19
2023-04-22T09:29:01.166Z,92.22
2023-04-22T09:31:28.939Z,92.28
2023-04-22T09:33:59.087Z,92.36
2023-04-22T09:36:30.285Z,92.41
2023-04-22T09:39:00.053Z,92.35
2023-04-22T09:41:38.754Z,92.25
2023-04-22T09:44:16.094Z,91.92
2023-04-22T09:46:44.309Z,91.81
2023-04-22T09:49:11.374Z,91.67
2023-04-22T09:51:41.512Z,91.73
2023-04-22T09:54:10.450Z,91.69
2023-04-22T09:57:04.028Z,91.73
2023-04-22T09:59:32.023Z,91.59
2023-04-22T10:02:01.274Z,91.59
2023-04-22T10:04:28.445Z,91.37
2023-04-22T10:06:55.896Z,91.38
2023-04-22T10:09:24.202Z,91.29
2023-04-22T10:11:54.098Z,91.21
2023-04-22T10:14:24.570Z,91.15
2023-04-22T10:16:54.419Z,91.28
2023-04-22T10:19:23.610Z,91.17
2023-04-22T10:21:56.174Z,91.17
2023-04-22T10:24:27.159Z,91.12
2023-04-22T10:26:57.799Z,91.05
2023-04-22T10:29:27.371Z,90.97
2023-04-22T10:31:59.641Z,91.16
2023-04-22T10:34:26.205Z,91.16
2023-04-22T10:36:57.529Z,90.87
2023-04-22T10:39:25.360Z,90.78
2023-04-22T10:41:54.345Z,90.97
2023-04-22T10:44:22.725Z,90.97
2023-04-22T10:46:52.968Z,90.63
2023-04-22T10:49:24.566Z,90.46
2023-04-22T10:51:55.558Z,90.32
2023-04-22T10:54:31.545Z,90.23
2023-04-22T10:57:08.591Z,90.32
2023-04-22T10:59:42.308Z,89.97
2023-04-22T11:02:12.066Z,89.88
2023-04-22T11:04:39.949Z,89.83
2023-04-22T11:07:13.418Z,89.79
2023-04-22T11:09:41.333Z,89.76
2023-04-22T11:12:35.963Z,89.71
2023-04-22T11:15:10.595Z,90.00
2023-04-22T11:17:38.414Z,90.17
2023-04-22T11:20:07.427Z,90.00
2023-04-22T11:22:39.757Z,89.57
2023-04-22T11:25:06.770Z,89.26
2023-04-22T11:27:33.466Z,88.79
2023-04-22T11:30:07.637Z,88.45
2023-04-22T11:32:39.001Z,88.58
2023-04-22T11:35:08.419Z,88.26
2023-04-22T11:37:52.623Z,88.18
2023-04-22T11:40:30.627Z,88.12
2023-04-22T11:43:00.254Z,88.00
2023-04-22T11:45:28.630Z,88.09
2023-04-22T11:47:56.563Z,88.22
2023-04-22T11:50:28.528Z,88.03
2023-04-22T11:53:01.287Z,88.19
2023-04-22T11:55:38.313Z,88.18
2023-04-22T11:58:08.196Z,88.21
2023-04-22T12:01:01.272Z,88.38
2023-04-22T12:03:30.202Z,88.20
2023-04-22T12:05:59.678Z,88.08
2023-04-22T12:08:30.601Z,88.49
2023-04-22T12:10:59.737Z,88.35
2023-04-22T12:13:30.403Z,88.23
2023-04-22T12:16:13.968Z,88.39
2023-04-22T12:18:47.969Z,88.45
2023-04-22T12:21:17.379Z,88.52
2023-04-22T12:23:45.792Z,88.41
2023-04-22T12:26:13.678Z,88.33
2023-04-22T12:28:40.989Z,88.47
2023-04-22T12:31:08.700Z,88.49
2023-04-22T12:33:36.484Z,88.57
2023-04-22T12:36:03.881Z,88.83
2023-04-22T12:38:30.722Z,88.93
2023-04-22T12:40:58.598Z,89.03
2023-04-22T12:43:25.721Z,89.11
2023-04-22T12:45:52.461Z,89.28
2023-04-22T12:48:19.237Z,89.39
2023-04-22T12:50:46.482Z,89.43
2023-04-22T12:53:13.176Z,89.84
2023-04-22T12:55:41.069Z,89.94
2023-04-22T12:58:08.124Z,89.94
2023-04-22T13:00:36.068Z,89.71
2023-04-22T13:03:03.719Z,89.66
2023-04-22T13:05:32.847Z,89.55
2023-04-22T13:08:07.361Z,89.55
2023-04-22T13:10:35.840Z,89.42
2023-04-22T13:15:37.691Z,89.23
2023-04-22T13:18:04.429Z,89.33
2023-04-22T13:20:31.142Z,89.47
2023-04-22T13:22:58.636Z,89.30
2023-04-22T13:25:25.339Z,89.34
2023-04-22T13:27:52.056Z,89.58
2023-04-22T13:30:18.798Z,89.59
2023-04-22T13:32:45.880Z,89.54
2023-04-22T13:35:12.840Z,89.91
2023-04-22T13:37:39.485Z,89.96
2023-04-22T13:40:06.784Z,89.71
2023-04-22T13:42:33.673Z,89.75
2023-04-22T13:45:00.854Z,89.45
2023-04-22T13:47:27.679Z,89.27
2023-04-22T13:49:54.353Z,89.03
2023-04-22T13:52:21.000Z,89.30
2023-04-22T13:54:47.774Z,89.38
2023-04-22T13:57:14.390Z,89.67
2023-04-22T13:59:41.694Z,89.81
2023-04-22T14:02:08.690Z,90.01
2023-04-22T14:04:35.477Z,89.55
2023-04-22T14:07:02.722Z,89.70
2023-04-22T14:09:29.442Z,89.77
2023-04-22T14:11:56.993Z,89.87
2023-04-22T14:14:23.793Z,89.82
2023-04-22T14:16:51.939Z,89.97
2023-04-22T14:19:18.757Z,90.06
2023-04-22T14:21:45.738Z,89.74
2023-04-22T14:24:12.494Z,89.87
2023-04-22T14:26:39.156Z,89.60
2023-04-22T14:29:05.859Z,89.38
2023-04-22T14:31:32.797Z,89.27
2023-04-22T14:33:59.457Z,89.28
2023-04-22T14:36:28.801Z,89.41
2023-04-22T14:38:55.518Z,89.24
2023-04-22T14:41:22.398Z,89.16
2023-04-22T14:43:49.107Z,89.00
2023-04-22T14:46:15.779Z,89.20
2023-04-22T14:48:42.700Z,88.97
2023-04-22T14:51:09.523Z,89.10
2023-04-22T14:53:36.512Z,88.78
2023-04-22T14:56:03.665Z,88.67
2023-04-22T14:58:33.181Z,88.39
2023-04-22T15:01:01.197Z,88.48
2023-04-22T15:03:28.210Z,88.57
2023-04-22T15:05:55.768Z,88.31
2023-04-22T15:08:25.202Z,88.36
2023-04-22T15:10:52.014Z,88.18
2023-04-22T15:13:19.758Z,88.25
2023-04-22T15:15:46.884Z,88.09
2023-04-22T15:18:13.865Z,87.76
2023-04-22T15:20:41.494Z,87.86
2023-04-22T15:23:08.159Z,87.24
2023-04-22T15:25:35.887Z,86.92
2023-04-22T15:28:03.238Z,87.01
2023-04-22T15:30:30.918Z,86.69
2023-04-22T15:32:57.619Z,86.72
2023-04-22T15:35:24.613Z,86.85
2023-04-22T15:37:52.680Z,87.07
2023-04-22T15:40:19.425Z,87.00
2023-04-22T15:42:46.154Z,87.15
2023-04-22T15:45:13.159Z,87.37
2023-04-22T15:47:40.771Z,87.10
2023-04-22T15:50:09.442Z,87.23
2023-04-22T15:52:38.405Z,87.25
2023-04-22T15:55:06.481Z,87.16
2023-04-22T15:57:35.379Z,87.10
2023-04-22T16:00:11.659Z,87.10
2023-04-22T16:02:40.781Z,86.98
2023-04-22T16:05:08.145Z,86.98
2023-04-22T16:07:35.368Z,86.76
2023-04-22T16:10:04.056Z,86.80
2023-04-22T16:12:34.184Z,86.36
2023-04-22T16:15:01.431Z,85.90
2023-04-22T16:17:28.336Z,85.77
2023-04-22T16:19:55.237Z,85.32
2023-04-22T16:22:21.909Z,85.54
2023-04-22T16:24:48.767Z,85.42
2023-04-22T16:27:18.162Z,84.70
2023-04-22T16:29:45.128Z,84.23
2023-04-22T16:32:12.114Z,84.17
2023-04-22T16:34:39.001Z,84.24
2023-04-22T16:37:08.573Z,83.83
2023-04-22T16:39:35.478Z,83.43
2023-04-22T16:42:03.046Z,83.43
2023-04-22T16:44:29.856Z,83.09
2023-04-22T16:46:56.520Z,82.53
2023-04-22T16:49:23.213Z,81.95
2023-04-22T16:51:49.968Z,81.79
2023-04-22T16:54:16.608Z,81.35
2023-04-22T16:56:43.180Z,81.03
2023-04-22T16:59:09.911Z,81.00
2023-04-22T17:01:36.684Z,80.95
2023-04-22T17:04:03.530Z,80.80
2023-04-22T17:06:31.327Z,80.81
2023-04-22T17:08:58.232Z,80.80
2023-04-22T17:11:25.392Z,80.82
2023-04-22T17:13:53.042Z,80.90
2023-04-22T17:16:19.774Z,80.87
2023-04-22T17:18:47.683Z,81.00
2023-04-22T17:21:14.953Z,81.24
2023-04-22T17:23:41.604Z,81.52
2023-04-22T17:26:08.593Z,81.63
2023-04-22T17:28:35.659Z,81.68
2023-04-22T17:31:03.947Z,81.71
2023-04-22T17:33:31.346Z,81.94
2023-04-22T17:35:58.061Z,81.96
2023-04-22T17:38:24.732Z,82.34
2023-04-22T17:40:51.397Z,82.22
2023-04-22T17:43:18.168Z,82.53
2023-04-22T17:45:44.795Z,82.57
2023-04-22T17:48:11.434Z,82.61
2023-04-22T17:50:38.088Z,82.77
2023-04-22T17:53:04.793Z,82.66
2023-04-22T17:55:35.073Z,82.62
2023-04-22T17:58:02.542Z,82.72
2023-04-22T18:00:29.455Z,82.77
2023-04-22T18:02:56.398Z,82.97
2023-04-22T18:05:23.342Z,83.04
2023-04-22T18:07:50.313Z,82.97
2023-04-22T18:10:16.994Z,82.84
2023-04-22T18:12:43.834Z,83.15
2023-04-22T18:15:10.728Z,83.24
2023-04-22T18:17:37.397Z,83.26
2023-04-22T18:20:16.498Z,83.32
2023-04-22T18:22:43.967Z,83.18
2023-04-22T18:25:10.747Z,83.39
2023-04-22T18:27:37.413Z,83.50
2023-04-22T18:30:04.754Z,83.80
2023-04-22T18:32:31.561Z,83.82
2023-04-22T18:34:58.565Z,83.98
2023-04-22T18:37:29.646Z,84.10
2023-04-22T18:39:57.746Z,84.17
2023-04-22T18:42:24.624Z,84.10
2023-04-22T18:44:51.341Z,84.13
2023-04-22T18:47:17.982Z,84.55
2023-04-22T18:49:45.547Z,84.77
2023-04-22T18:52:12.918Z,85.18
2023-04-22T18:54:39.856Z,85.05
2023-04-22T18:57:06.943Z,85.13
2023-04-22T18:59:33.664Z,85.22
2023-04-22T19:02:00.597Z,85.53
2023-04-22T19:04:27.713Z,85.73
2023-04-22T19:06:57.011Z,85.95
2023-04-22T19:09:24.052Z,86.15
2023-04-22T19:11:50.817Z,86.04
2023-04-22T19:14:17.582Z,86.11
2023-04-22T19:16:44.364Z,86.15
2023-04-22T19:19:12.226Z,86.22
2023-04-22T19:21:39.622Z,86.19
2023-04-22T19:24:06.690Z,86.08
2023-04-22T19:26:34.411Z,86.03
2023-04-22T19:29:04.914Z,85.95
2023-04-22T19:31:33.092Z,85.95
2023-04-22T19:34:03.962Z,86.13
2023-04-22T19:36:51.289Z,85.97
2023-04-22T19:39:37.953Z,86.18
2023-04-22T19:42:05.857Z,86.52
2023-04-22T19:44:32.731Z,86.76
2023-04-22T19:46:59.478Z,86.90
2023-04-22T19:49:26.566Z,86.98
2023-04-22T19:51:53.907Z,87.07
2023-04-22T19:54:21.997Z,87.13
2023-04-22T19:56:49.201Z,87.26
2023-04-22T19:59:16.072Z,87.22
2023-04-22T20:01:43.171Z,87.48
2023-04-22T20:04:10.192Z,87.23
2023-04-22T20:06:37.772Z,87.63
2023-04-22T20:09:05.805Z,87.64
2023-04-22T20:11:33.049Z,87.81
2023-04-22T20:14:00.119Z,87.75
2023-04-22T20:16:27.873Z,87.90
2023-04-22T20:18:55.355Z,88.03
2023-04-22T20:21:22.321Z,87.93
2023-04-22T20:23:51.119Z,88.12
2023-04-22T20:26:21.400Z,88.32
2023-04-22T20:28:52.148Z,88.40
2023-04-22T20:31:20.646Z,88.37
2023-04-22T20:33:47.535Z,88.51
2023-04-22T20:36:17.070Z,88.57
2023-04-22T20:38:48.734Z,88.60
2023-04-22T20:41:19.048Z,88.82
2023-04-22T20:43:46.672Z,88.74
2023-04-22T20:46:13.460Z,88.93
2023-04-22T20:48:40.121Z,89.08
2023-04-22T20:51:07.063Z,89.17
2023-04-22T20:53:36.299Z,88.90
2023-04-22T20:56:03.253Z,88.98
2023-04-22T20:58:30.154Z,88.81
2023-04-22T21:00:56.975Z,88.82
2023-04-22T21:03:25.243Z,88.94
2023-04-22T21:05:52.401Z,89.03
2023-04-22T21:08:23.411Z,88.79
2023-04-22T21:10:52.797Z,88.95
2023-04-22T21:13:19.971Z,88.94
2023-04-22T21:16:08.976Z,89.05
2023-04-22T21:18:44.662Z,89.15
2023-04-22T21:21:14.234Z,89.02
2023-04-22T21:23:42.211Z,89.16
2023-04-22T21:26:10.099Z,89.07
2023-04-22T21:28:37.656Z,89.25
2023-04-22T21:31:04.807Z,89.39
2023-04-22T21:33:33.360Z,89.39
2023-04-22T21:36:00.502Z,89.29
2023-04-22T21:38:27.436Z,89.33
2023-04-22T21:40:54.197Z,89.34
2023-04-22T21:43:20.890Z,89.38
2023-04-22T21:45:47.514Z,89.09
2023-04-22T21:48:14.152Z,89.00
2023-04-22T21:50:41.916Z,89.04
2023-04-22T21:53:08.560Z,89.09
2023-04-22T21:55:35.181Z,89.18
2023-04-22T21:58:01.900Z,89.15
2023-04-22T22:00:28.669Z,89.38
2023-04-22T22:02:55.418Z,89.38
2023-04-22T22:05:22.210Z,89.48
2023-04-22T22:07:49.118Z,89.45
2023-04-22T22:10:19.209Z,89.45
2023-04-22T22:12:46.978Z,89.40
2023-04-22T22:15:13.679Z,89.34
2023-04-22T22:17:40.399Z,89.38
2023-04-22T22:20:12.061Z,89.63
2023-04-22T22:22:40.784Z,89.77
2023-04-22T22:25:12.552Z,89.91
2023-04-22T22:27:48.687Z,89.89
2023-04-22T22:30:16.845Z,89.97
2023-04-22T22:32:43.559Z,89.87
2023-04-22T22:35:10.820Z,90.22
2023-04-22T22:37:38.663Z,90.36
2023-04-22T22:40:06.336Z,90.35
2023-04-22T22:42:32.963Z,90.55
2023-04-22T22:44:59.635Z,90.69
2023-04-22T22:47:26.638Z,90.77
2023-04-22T22:49:53.617Z,91.11
2023-04-22T22:52:20.361Z,91.04
2023-04-22T22:54:48.976Z,90.95
2023-04-22T22:57:16.336Z,90.83
2023-04-22T22:59:43.026Z,90.98
2023-04-22T23:02:10.155Z,91.10
2023-04-22T23:04:37.577Z,91.07
2023-04-22T23:07:04.411Z,91.03
2023-04-22T23:09:31.102Z,91.12
2023-04-22T23:11:58.489Z,91.12
2023-04-22T23:14:28.232Z,91.25
2023-04-22T23:16:54.886Z,91.25
2023-04-22T23:19:21.953Z,91.34
2023-04-22T23:21:49.986Z,91.52
2023-04-22T23:24:17.082Z,91.61
2023-04-22T23:26:44.128Z,91.79
2023-04-22T23:29:11.030Z,91.63
2023-04-22T23:31:41.756Z,91.79
2023-04-22T23:34:09.492Z,91.81
2023-04-22T23:36:37.416Z,91.83
2023-04-22T23:39:06.644Z,91.86
2023-04-22T23:41:33.666Z,91.86
2023-04-22T23:44:00.388Z,91.99
2023-04-22T23:46:27.150Z,92.18
2023-04-22T23:48:54.443Z,92.15
2023-04-22T23:51:21.178Z,92.05
2023-04-22T23:53:47.812Z,92.04
2023-04-22T23:56:14.929Z,92.00
2023-04-22T23:58:42.015Z,92.26
